createdAt,value
2023-03-06T00:01:35.828Z,83.73
2023-03-06T00:04:03.957Z,83.32
2023-03-06T00:06:31.792Z,83.47
2023-03-06T00:09:01.956Z,83.20
2023-03-06T00:11:30.427Z,83.39
2023-03-06T00:13:58.246Z,83.89
2023-03-06T00:16:26.418Z,83.38
2023-03-06T00:22:13.854Z,83.62
2023-03-06T00:24:43.014Z,83.84
2023-03-06T00:27:09.891Z,83.79
2023-03-06T00:30:09.680Z,83.94
2023-03-06T00:32:44.426Z,83.71
2023-03-06T00:35:18.105Z,83.61
2023-03-06T00:37:45.822Z,83.78
2023-03-06T00:40:17.093Z,84.13
2023-03-06T00:42:49.828Z,84.03
2023-03-06T00:45:18.021Z,83.70
2023-03-06T00:47:50.888Z,83.71
2023-03-06T00:50:17.828Z,83.81
2023-03-06T00:56:30.132Z,83.64
2023-03-06T00:59:02.117Z,83.61
2023-03-06T01:01:30.010Z,83.56
2023-03-06T01:09:41.795Z,83.89
2023-03-06T01:12:09.969Z,84.17
2023-03-06T01:14:41.850Z,84.10
2023-03-06T01:17:10.377Z,83.86
2023-03-06T01:19:37.801Z,83.61
2023-03-06T01:22:31.817Z,83.96
2023-03-06T01:24:59.856Z,84.26
2023-03-06T01:27:27.795Z,84.08
2023-03-06T01:29:55.787Z,84.30
2023-03-06T01:32:23.838Z,84.61
2023-03-06T01:34:51.815Z,84.17
2023-03-06T01:37:19.823Z,84.00
2023-03-06T01:39:48.706Z,84.15
2023-03-06T01:42:16.490Z,84.24
2023-03-06T01:45:18.248Z,84.00
2023-03-06T01:47:50.786Z,84.25
2023-03-06T01:50:17.978Z,84.32
2023-03-06T01:52:53.058Z,84.37
2023-03-06T01:55:26.752Z,84.32
2023-03-06T01:57:57.770Z,84.22
2023-03-06T02:00:30.810Z,84.21
2023-03-06T02:03:12.307Z,84.12
2023-03-06T02:05:42.556Z,84.31
2023-03-06T02:08:17.821Z,83.83
2023-03-06T02:10:57.832Z,83.87
2023-03-06T02:13:31.138Z,83.93
2023-03-06T02:16:00.265Z,84.13
2023-03-06T02:18:29.143Z,84.06
2023-03-06T02:21:07.245Z,84.12
2023-03-06T02:23:52.156Z,84.00
2023-03-06T02:26:21.142Z,84.09
2023-03-06T02:28:54.988Z,84.16
2023-03-06T02:31:29.352Z,84.28
2023-03-06T02:34:14.986Z,84.35
2023-03-06T02:36:48.345Z,83.99
2023-03-06T02:39:27.291Z,84.71
2023-03-06T02:41:59.856Z,84.62
2023-03-06T02:44:30.638Z,84.42
2023-03-06T02:47:02.820Z,85.21
2023-03-06T02:49:29.820Z,84.41
2023-03-06T02:51:57.858Z,85.03
2023-03-06T02:54:29.833Z,85.02
2023-03-06T02:56:57.865Z,84.44
2023-03-06T02:59:31.761Z,84.76
2023-03-06T03:02:00.138Z,84.68
2023-03-06T03:04:27.952Z,84.52
2023-03-06T03:06:55.786Z,84.30
2023-03-06T03:09:25.758Z,84.25
2023-03-06T03:11:53.815Z,84.11
2023-03-06T03:14:21.920Z,84.15
2023-03-06T03:20:12.783Z,84.53
2023-03-06T03:22:40.456Z,84.30
2023-03-06T03:25:19.725Z,84.10
2023-03-06T03:27:47.795Z,84.11
2023-03-06T03:30:16.698Z,85.07
2023-03-06T03:35:36.486Z,84.47
2023-03-06T03:38:09.887Z,84.47
2023-03-06T03:43:55.929Z,84.24
2023-03-06T03:46:29.879Z,84.39
2023-03-06T03:48:58.390Z,83.97
2023-03-06T03:51:27.857Z,83.81
2023-03-06T03:53:58.151Z,84.02
2023-03-06T03:56:27.788Z,84.02
2023-03-06T03:59:09.930Z,83.78
2023-03-06T04:01:56.007Z,84.13
2023-03-06T04:04:30.982Z,84.02
2023-03-06T04:06:58.035Z,83.84
2023-03-06T04:09:25.780Z,83.82
2023-03-06T04:12:19.807Z,84.05
2023-03-06T04:14:51.797Z,83.79
2023-03-06T04:17:19.762Z,83.98
2023-03-06T04:19:47.895Z,83.94
2023-03-06T04:22:18.111Z,83.87
2023-03-06T04:24:50.078Z,83.55
2023-03-06T04:27:17.936Z,83.57
2023-03-06T04:29:45.889Z,83.79
2023-03-06T04:32:13.892Z,83.57
2023-03-06T04:34:47.080Z,84.08
2023-03-06T04:37:22.613Z,83.82
2023-03-06T04:39:57.150Z,83.86
2023-03-06T04:42:23.918Z,83.78
2023-03-06T04:44:56.771Z,83.53
2023-03-06T04:47:23.818Z,83.64
2023-03-06T04:49:51.814Z,83.62
2023-03-06T04:52:19.800Z,83.34
2023-03-06T04:54:51.775Z,83.41
2023-03-06T04:57:19.808Z,83.57
2023-03-06T04:59:48.290Z,83.65
2023-03-06T05:02:16.261Z,83.75
2023-03-06T05:04:49.917Z,83.78
2023-03-06T05:07:17.875Z,83.93
2023-03-06T05:09:45.739Z,83.82
2023-03-06T05:12:13.867Z,83.80
2023-03-06T05:14:41.844Z,83.86
2023-03-06T05:17:10.049Z,83.71
2023-03-06T05:19:37.777Z,83.94
2023-03-06T05:22:06.027Z,83.74
2023-03-06T05:27:28.937Z,83.91
2023-03-06T05:29:56.219Z,83.79
2023-03-06T05:32:23.938Z,83.61
2023-03-06T05:34:51.801Z,83.96
2023-03-06T05:37:19.951Z,83.48
2023-03-06T05:39:47.903Z,83.66
2023-03-06T05:42:15.814Z,83.86
2023-03-06T05:47:59.889Z,83.56
2023-03-06T05:50:31.862Z,83.57
2023-03-06T05:53:00.223Z,83.85
2023-03-06T05:55:27.863Z,83.55
2023-03-06T05:58:16.053Z,83.81
2023-03-06T06:03:29.853Z,84.03
2023-03-06T06:05:57.939Z,83.92
2023-03-06T06:08:34.937Z,84.00
2023-03-06T06:11:03.919Z,83.82
2023-03-06T06:13:32.498Z,84.06
2023-03-06T06:15:59.898Z,83.99
2023-03-06T06:18:27.832Z,83.95
2023-03-06T06:21:00.805Z,84.05
2023-03-06T06:23:27.782Z,83.97
2023-03-06T06:29:12.949Z,83.59
2023-03-06T06:31:40.592Z,83.73
2023-03-06T06:34:34.705Z,83.90
2023-03-06T06:37:01.831Z,83.90
2023-03-06T06:39:33.791Z,84.51
2023-03-06T06:42:26.181Z,84.30
2023-03-06T06:45:15.742Z,84.22
2023-03-06T06:48:08.124Z,84.19
2023-03-06T06:50:35.883Z,84.88
2023-03-06T06:53:04.207Z,84.43
2023-03-06T06:55:36.839Z,84.56
2023-03-06T06:58:03.937Z,84.82
2023-03-06T07:00:31.755Z,84.53
2023-03-06T07:02:59.780Z,85.22
2023-03-06T07:05:27.815Z,85.49
2023-03-06T07:07:55.801Z,84.82
2023-03-06T07:10:32.477Z,84.79
2023-03-06T07:13:25.336Z,84.77
2023-03-06T07:15:54.035Z,86.57
2023-03-06T07:18:21.795Z,85.91
2023-03-06T07:20:54.565Z,85.80
2023-03-06T07:23:22.276Z,85.73
2023-03-06T07:25:54.951Z,84.95
2023-03-06T07:28:24.139Z,85.51
2023-03-06T07:31:17.813Z,86.05
2023-03-06T07:33:45.755Z,86.28
2023-03-06T07:36:14.027Z,86.20
2023-03-06T07:38:41.862Z,85.58
2023-03-06T07:41:59.248Z,84.85
2023-03-06T07:44:28.023Z,85.16
2023-03-06T07:46:55.895Z,85.03
2023-03-06T07:52:16.982Z,87.40
2023-03-06T07:54:43.812Z,85.78
2023-03-06T07:57:13.184Z,85.58
2023-03-06T07:59:39.782Z,86.19
2023-03-06T08:02:07.845Z,86.48
2023-03-06T08:04:40.800Z,87.04
2023-03-06T08:07:07.948Z,87.28
2023-03-06T08:09:59.814Z,87.56
2023-03-06T08:12:27.818Z,87.66
2023-03-06T08:14:56.023Z,87.24
2023-03-06T08:17:23.873Z,87.33
2023-03-06T08:19:51.831Z,87.28
2023-03-06T08:22:44.867Z,86.86
2023-03-06T08:25:13.440Z,87.59
2023-03-06T08:27:42.150Z,87.75
2023-03-06T08:30:10.494Z,86.92
2023-03-06T08:32:42.927Z,87.07
2023-03-06T08:35:15.110Z,86.94
2023-03-06T08:37:41.888Z,87.31
2023-03-06T08:40:10.596Z,86.93
2023-03-06T08:42:37.781Z,87.13
2023-03-06T08:45:10.089Z,87.06
2023-03-06T08:47:37.822Z,87.78
2023-03-06T08:50:05.966Z,87.27
2023-03-06T08:52:38.936Z,87.85
2023-03-06T08:55:06.485Z,87.83
2023-03-06T08:57:33.805Z,87.34
2023-03-06T09:00:01.881Z,87.12
2023-03-06T09:02:29.815Z,87.21
2023-03-06T09:04:59.383Z,87.36
2023-03-06T09:07:31.823Z,87.02
2023-03-06T09:09:59.771Z,86.75
2023-03-06T09:12:29.268Z,86.56
2023-03-06T09:14:57.975Z,86.85
2023-03-06T09:17:25.791Z,86.47
2023-03-06T09:19:53.772Z,86.90
2023-03-06T09:22:21.833Z,86.86
2023-03-06T09:24:55.605Z,87.66
2023-03-06T09:27:23.915Z,87.66
2023-03-06T09:29:51.836Z,87.53
2023-03-06T09:32:20.052Z,87.59
2023-03-06T09:34:47.956Z,87.00
2023-03-06T09:37:17.421Z,87.93
2023-03-06T09:39:45.821Z,86.84
2023-03-06T09:42:19.533Z,87.26
2023-03-06T09:45:01.168Z,86.95
2023-03-06T09:47:36.917Z,87.36
2023-03-06T09:50:15.737Z,88.16
2023-03-06T09:53:22.961Z,87.28
2023-03-06T09:56:00.180Z,87.58
2023-03-06T09:58:34.896Z,88.01
2023-03-06T10:01:07.066Z,88.23
2023-03-06T10:03:33.792Z,87.83
2023-03-06T10:06:10.397Z,87.06
2023-03-06T10:09:19.001Z,86.91
2023-03-06T10:11:55.778Z,87.02
2023-03-06T10:14:27.603Z,86.88
2023-03-06T10:16:56.984Z,87.35
2023-03-06T10:19:35.201Z,86.82
2023-03-06T10:22:03.875Z,87.27
2023-03-06T10:25:10.549Z,87.24
2023-03-06T10:27:56.888Z,86.88
2023-03-06T10:30:52.719Z,86.40
2023-03-06T10:33:51.837Z,86.84
2023-03-06T10:36:21.980Z,87.40
2023-03-06T10:38:50.126Z,87.81
2023-03-06T10:41:29.666Z,87.26
2023-03-06T10:44:00.863Z,87.53
2023-03-06T10:46:30.489Z,86.18
2023-03-06T10:49:03.386Z,86.99
2023-03-06T10:51:33.985Z,86.74
2023-03-06T10:54:18.806Z,86.05
2023-03-06T10:57:37.997Z,86.41
2023-03-06T11:00:49.121Z,86.43
2023-03-06T11:03:22.685Z,85.52
2023-03-06T11:05:55.828Z,86.62
2023-03-06T11:08:24.026Z,86.51
2023-03-06T11:11:02.703Z,84.93
2023-03-06T11:13:33.794Z,85.12
2023-03-06T11:19:39.752Z,84.56
2023-03-06T11:22:19.168Z,85.31
2023-03-06T11:24:53.618Z,85.29
2023-03-06T11:27:27.297Z,82.94
2023-03-06T11:29:58.708Z,84.57
2023-03-06T11:32:33.245Z,85.17
2023-03-06T11:35:24.539Z,83.18
2023-03-06T11:37:58.243Z,83.60
2023-03-06T11:40:44.793Z,83.12
2023-03-06T11:43:23.290Z,83.37
2023-03-06T11:46:03.184Z,82.73
2023-03-06T11:48:36.856Z,83.39
2023-03-06T11:51:18.924Z,82.36
2023-03-06T11:53:50.936Z,82.55
2023-03-06T11:56:37.071Z,82.86
2023-03-06T11:59:23.998Z,82.37
2023-03-06T12:02:22.904Z,79.88
2023-03-06T12:04:57.138Z,79.26
2023-03-06T12:07:37.431Z,79.12
2023-03-06T12:10:18.919Z,79.82
2023-03-06T12:13:13.765Z,79.51
2023-03-06T12:15:47.740Z,79.46
2023-03-06T12:18:43.133Z,76.61
2023-03-06T12:21:32.512Z,79.60
2023-03-06T12:24:37.002Z,77.87
2023-03-06T12:27:25.583Z,76.71
2023-03-06T12:30:24.985Z,77.38
2023-03-06T12:33:20.528Z,76.10
2023-03-06T12:35:56.772Z,78.40
2023-03-06T12:38:51.385Z,76.61
2023-03-06T12:44:49.078Z,74.63
2023-03-06T12:50:24.032Z,76.17
2023-03-06T12:53:02.772Z,74.61
2023-03-06T12:55:41.884Z,75.68
2023-03-06T12:58:28.107Z,74.89
2023-03-06T13:01:06.131Z,72.66
2023-03-06T13:03:52.704Z,73.19
2023-03-06T13:06:49.745Z,71.20
2023-03-06T13:09:56.860Z,72.98
2023-03-06T13:15:45.834Z,70.33
2023-03-06T13:18:23.113Z,72.03
2023-03-06T13:20:54.471Z,71.79
2023-03-06T13:23:34.447Z,69.54
2023-03-06T13:26:30.907Z,70.97
2023-03-06T13:29:03.511Z,72.44
2023-03-06T13:31:37.699Z,68.65
2023-03-06T13:34:31.757Z,68.35
2023-03-06T13:37:23.186Z,70.72
2023-03-06T13:39:55.746Z,72.10
2023-03-06T13:42:32.569Z,69.56
2023-03-06T13:45:08.797Z,68.23
2023-03-06T13:48:10.929Z,69.32
2023-03-06T13:50:46.881Z,71.14
2023-03-06T13:53:40.717Z,72.04
2023-03-06T13:57:12.196Z,71.59
2023-03-06T14:00:19.050Z,71.78
2023-03-06T14:03:39.320Z,71.84
2023-03-06T14:06:37.310Z,73.08
2023-03-06T14:09:08.221Z,73.89
2023-03-06T14:11:37.534Z,72.90
2023-03-06T14:14:39.508Z,73.41
2023-03-06T14:17:20.531Z,72.31
2023-03-06T14:19:48.744Z,71.34
2023-03-06T14:22:24.229Z,72.13
2023-03-06T14:24:56.708Z,72.09
2023-03-06T14:28:12.388Z,73.77
2023-03-06T14:30:50.347Z,71.49
2023-03-06T14:33:44.335Z,70.22
2023-03-06T14:36:15.669Z,71.52
2023-03-06T14:38:59.683Z,69.11
2023-03-06T14:41:30.698Z,65.85
2023-03-06T14:44:26.782Z,68.30
2023-03-06T14:46:56.300Z,69.79
2023-03-06T14:49:26.153Z,70.75
2023-03-06T14:51:56.378Z,70.43
2023-03-06T14:54:29.814Z,68.55
2023-03-06T14:57:05.968Z,69.75
2023-03-06T14:59:52.943Z,71.46
2023-03-06T15:02:23.402Z,70.01
2023-03-06T15:04:56.128Z,71.02
2023-03-06T15:07:38.060Z,72.79
2023-03-06T15:10:15.424Z,70.31
2023-03-06T15:12:43.783Z,71.56
2023-03-06T15:15:11.777Z,72.14
2023-03-06T15:17:42.130Z,72.56
2023-03-06T15:20:43.525Z,71.93
2023-03-06T15:23:47.298Z,71.34
2023-03-06T15:26:21.763Z,71.33
2023-03-06T15:29:09.298Z,72.79
2023-03-06T15:31:40.608Z,72.91
2023-03-06T15:34:07.853Z,71.68
2023-03-06T15:36:46.507Z,72.00
2023-03-06T15:39:35.806Z,72.20
2023-03-06T15:42:21.795Z,71.95
2023-03-06T15:44:59.516Z,72.78
2023-03-06T15:47:53.830Z,73.69
2023-03-06T15:50:25.215Z,73.94
2023-03-06T15:52:54.116Z,73.32
2023-03-06T15:55:25.952Z,73.08
2023-03-06T15:57:59.766Z,73.20
2023-03-06T16:00:56.844Z,72.87
2023-03-06T16:03:23.975Z,72.39
2023-03-06T16:05:51.800Z,73.08
2023-03-06T16:08:19.832Z,73.03
2023-03-06T16:13:42.745Z,72.75
2023-03-06T16:16:23.156Z,72.86
2023-03-06T16:18:55.601Z,71.93
2023-03-06T16:21:23.859Z,73.44
2023-03-06T16:23:52.063Z,72.50
2023-03-06T16:26:25.979Z,72.83
2023-03-06T16:28:53.810Z,73.15
2023-03-06T16:31:25.972Z,73.53
2023-03-06T16:33:53.906Z,72.55
2023-03-06T16:36:25.000Z,72.91
2023-03-06T16:39:02.994Z,72.51
2023-03-06T16:41:29.826Z,72.20
2023-03-06T16:43:57.832Z,72.10
2023-03-06T16:46:26.275Z,72.33
2023-03-06T16:49:04.092Z,72.11
2023-03-06T16:51:37.778Z,73.31
2023-03-06T16:54:06.086Z,73.21
2023-03-06T16:56:33.827Z,73.42
2023-03-06T16:59:01.926Z,73.98
2023-03-06T17:01:29.986Z,73.57
2023-03-06T17:03:58.788Z,72.94
2023-03-06T17:06:25.812Z,73.48
2023-03-06T17:11:51.777Z,73.44
2023-03-06T17:14:19.912Z,73.40
2023-03-06T17:16:47.907Z,74.67
2023-03-06T17:22:09.778Z,73.61
2023-03-06T17:24:51.804Z,74.16
2023-03-06T17:27:22.986Z,73.82
2023-03-06T17:29:59.639Z,74.33
2023-03-06T17:32:28.246Z,74.49
2023-03-06T17:34:56.762Z,74.42
2023-03-06T17:37:23.917Z,73.86
2023-03-06T17:39:51.878Z,73.84
2023-03-06T17:42:19.828Z,75.30
2023-03-06T17:44:49.898Z,75.21
2023-03-06T17:47:20.406Z,74.88
2023-03-06T17:49:52.269Z,74.49
2023-03-06T17:52:19.809Z,75.09
2023-03-06T17:54:47.863Z,75.05
2023-03-06T17:57:18.629Z,75.05
2023-03-06T17:59:52.957Z,74.89
2023-03-06T18:02:20.039Z,75.23
2023-03-06T18:04:47.862Z,74.96
2023-03-06T18:07:15.843Z,75.49
2023-03-06T18:09:43.860Z,75.50
2023-03-06T18:12:11.855Z,76.14
2023-03-06T18:15:05.048Z,75.76
2023-03-06T18:17:31.777Z,76.25
2023-03-06T18:20:32.792Z,75.53
2023-03-06T18:23:06.057Z,76.19
2023-03-06T18:25:34.056Z,75.96
2023-03-06T18:30:53.769Z,76.25
2023-03-06T18:33:21.766Z,76.78
2023-03-06T18:36:24.957Z,76.43
2023-03-06T18:38:52.249Z,75.83
2023-03-06T18:41:20.790Z,76.14
2023-03-06T18:43:55.294Z,76.75
2023-03-06T18:46:24.708Z,76.42
2023-03-06T18:48:52.135Z,76.12
2023-03-06T18:51:50.238Z,76.73
2023-03-06T18:54:20.718Z,76.29
2023-03-06T18:56:51.085Z,76.73
2023-03-06T18:59:23.070Z,76.68
2023-03-06T19:01:49.913Z,76.65
2023-03-06T19:04:17.928Z,75.88
2023-03-06T19:06:45.850Z,75.28
2023-03-06T19:09:14.294Z,76.26
2023-03-06T19:11:45.728Z,76.53
2023-03-06T19:14:14.779Z,76.09
2023-03-06T19:16:42.392Z,76.85
2023-03-06T19:19:09.973Z,77.65
2023-03-06T19:21:47.052Z,77.62
2023-03-06T19:24:16.450Z,77.96
2023-03-06T19:26:46.637Z,77.11
2023-03-06T19:29:13.820Z,76.93
2023-03-06T19:31:48.046Z,76.90
2023-03-06T19:34:15.844Z,77.01
2023-03-06T19:36:45.952Z,76.68
2023-03-06T19:39:21.983Z,77.43
2023-03-06T19:41:49.899Z,77.39
2023-03-06T19:44:23.881Z,77.02
2023-03-06T19:46:51.889Z,77.87
2023-03-06T19:49:22.494Z,77.78
2023-03-06T19:51:52.581Z,76.93
2023-03-06T19:54:24.662Z,77.05
2023-03-06T19:59:43.882Z,76.75
2023-03-06T20:02:17.770Z,77.33
2023-03-06T20:04:46.858Z,77.10
2023-03-06T20:07:20.399Z,76.29
2023-03-06T20:09:49.985Z,76.67
2023-03-06T20:12:25.509Z,75.92
2023-03-06T20:15:00.920Z,76.44
2023-03-06T20:17:58.790Z,76.81
2023-03-06T20:20:28.174Z,77.07
2023-03-06T20:22:56.241Z,77.13
2023-03-06T20:25:23.846Z,76.99
2023-03-06T20:27:51.788Z,76.88
2023-03-06T20:30:20.266Z,76.73
2023-03-06T20:32:52.955Z,76.91
2023-03-06T20:35:19.884Z,76.96
2023-03-06T20:37:49.800Z,77.22
2023-03-06T20:40:17.892Z,78.12
2023-03-06T20:42:48.088Z,77.02
2023-03-06T20:45:15.924Z,77.36
2023-03-06T20:47:47.171Z,77.81
2023-03-06T20:53:09.830Z,77.37
2023-03-06T20:55:37.841Z,78.02
2023-03-06T20:58:12.759Z,77.39
2023-03-06T21:00:44.872Z,77.64
2023-03-06T21:03:11.862Z,78.07
2023-03-06T21:05:39.889Z,77.63
2023-03-06T21:08:07.986Z,78.18
2023-03-06T21:13:29.989Z,78.79
2023-03-06T21:15:58.914Z,79.41
2023-03-06T21:18:25.802Z,79.37
2023-03-06T21:20:57.829Z,79.59
2023-03-06T21:23:25.821Z,79.35
2023-03-06T21:25:57.864Z,80.13
2023-03-06T21:31:47.774Z,79.67
2023-03-06T21:34:19.765Z,79.93
2023-03-06T21:36:47.888Z,79.80
2023-03-06T21:39:15.796Z,80.03
2023-03-06T21:41:43.747Z,79.78
2023-03-06T21:44:16.836Z,80.11
2023-03-06T21:46:43.812Z,80.02
2023-03-06T21:49:15.814Z,79.64
2023-03-06T21:51:43.783Z,80.13
2023-03-06T21:54:17.993Z,80.02
2023-03-06T21:56:46.004Z,80.05
2023-03-06T21:59:39.904Z,80.27
2023-03-06T22:02:07.765Z,79.98
2023-03-06T22:04:35.778Z,80.45
2023-03-06T22:07:28.944Z,80.45
2023-03-06T22:09:55.813Z,80.46
2023-03-06T22:12:23.757Z,79.86
2023-03-06T22:14:51.805Z,80.35
2023-03-06T22:17:19.940Z,80.33
2023-03-06T22:19:51.026Z,79.94
2023-03-06T22:22:17.790Z,79.66
2023-03-06T22:24:53.393Z,80.00
2023-03-06T22:27:21.805Z,80.29
2023-03-06T22:29:54.815Z,80.07
2023-03-06T22:32:21.915Z,80.25
2023-03-06T22:34:50.129Z,79.98
2023-03-06T22:37:17.825Z,80.48
2023-03-06T22:39:45.776Z,79.46
2023-03-06T22:42:13.829Z,80.06
2023-03-06T22:44:41.758Z,79.98
2023-03-06T22:47:09.846Z,79.78
2023-03-06T22:49:37.880Z,80.08
2023-03-06T22:52:15.324Z,80.45
2023-03-06T22:54:43.751Z,80.08
2023-03-06T22:57:36.925Z,79.99
2023-03-06T23:00:04.531Z,80.04
2023-03-06T23:02:35.122Z,80.72
2023-03-06T23:05:02.057Z,80.79
2023-03-06T23:07:34.043Z,81.42
2023-03-06T23:10:01.882Z,82.09
2023-03-06T23:12:52.858Z,82.56
2023-03-06T23:15:43.774Z,83.40
2023-03-06T23:21:45.789Z,84.60
2023-03-06T23:24:36.177Z,85.20
2023-03-06T23:27:04.526Z,85.61
2023-03-06T23:29:31.832Z,85.14
2023-03-06T23:31:59.909Z,85.96
2023-03-06T23:34:27.864Z,85.96
2023-03-06T23:36:56.249Z,86.38
2023-03-06T23:39:23.870Z,86.54
2023-03-06T23:41:51.839Z,86.64
2023-03-06T23:44:19.821Z,86.59
2023-03-06T23:46:52.839Z,86.94
2023-03-06T23:49:21.679Z,87.34
2023-03-06T23:51:49.854Z,87.89
2023-03-06T23:54:21.796Z,87.98
2023-03-06T23:56:49.855Z,88.74
2023-03-06T23:59:17.819Z,88.83
